createdAt,value
2023-02-28T00:01:37.116Z,60508.81
2023-02-28T00:04:07.134Z,60506.16
2023-02-28T00:06:35.529Z,60498.69
2023-02-28T00:09:04.122Z,60493.94
2023-02-28T00:11:32.735Z,60498.03
2023-02-28T00:14:01.508Z,60505.88
2023-02-28T00:16:30.097Z,60494.19
2023-02-28T00:18:58.563Z,60500.16
2023-02-28T00:21:28.832Z,60490.09
2023-02-28T00:23:57.486Z,60484.91
2023-02-28T00:26:25.947Z,60486.88
2023-02-28T00:28:54.875Z,60487.41
2023-02-28T00:31:24.898Z,60487.28
2023-02-28T00:33:53.321Z,60479.97
2023-02-28T00:36:23.053Z,60473.19
2023-02-28T00:38:52.854Z,60477.31
2023-02-28T00:41:21.468Z,60469.88
2023-02-28T00:43:49.952Z,60472.53
2023-02-28T00:46:18.507Z,60469.34
2023-02-28T00:48:46.956Z,60470.41
2023-02-28T00:51:16.739Z,60460.31
2023-02-28T00:53:45.308Z,60461.66
2023-02-28T00:56:15.125Z,60476.13
2023-02-28T00:58:43.506Z,60469.88
2023-02-28T01:01:12.340Z,60461.91
2023-02-28T01:03:40.782Z,60461.91
2023-02-28T01:06:09.575Z,60464.69
2023-02-28T01:08:38.018Z,60462.16
2023-02-28T01:11:15.317Z,60456.59
2023-02-28T01:13:44.772Z,60453.94
2023-02-28T01:16:15.580Z,60455.53
2023-02-28T01:18:44.452Z,60456.97
2023-02-28T01:21:15.950Z,60453.41
2023-02-28T01:23:44.492Z,60445.97
2023-02-28T01:26:17.322Z,60455.78
2023-02-28T01:28:46.125Z,60437.72
2023-02-28T01:31:15.043Z,60442.78
2023-02-28T01:33:44.133Z,60447.03
2023-02-28T01:36:15.107Z,60444.91
2023-02-28T01:38:44.571Z,60437.06
2023-02-28T01:41:19.722Z,60435.34
2023-02-28T01:44:07.416Z,60440.13
2023-02-28T01:46:38.203Z,60432.28
2023-02-28T01:49:10.658Z,60435.88
2023-02-28T01:51:47.326Z,60430.94
2023-02-28T01:54:19.204Z,60430.81
2023-02-28T01:56:55.593Z,60438.13
2023-02-28T01:59:29.710Z,60439.59
2023-02-28T02:01:58.363Z,60438.53
2023-02-28T02:04:36.209Z,60436.94
2023-02-28T02:07:05.603Z,60429.63
2023-02-28T02:09:33.968Z,60432.81
2023-02-28T02:12:16.711Z,60426.31
2023-02-28T02:15:00.129Z,60428.56
2023-02-28T02:17:35.346Z,60417.41
2023-02-28T02:20:35.975Z,60411.56
2023-02-28T02:23:44.932Z,60411.44
2023-02-28T02:26:50.138Z,60401.88
2023-02-28T02:30:03.153Z,60402.00
2023-02-28T02:33:08.464Z,60408.25
2023-02-28T02:35:47.492Z,60397.09
2023-02-28T02:38:31.642Z,60385.03
2023-02-28T02:41:08.533Z,60386.22
2023-02-28T02:43:42.896Z,60379.72
2023-02-28T02:46:17.257Z,60377.31
2023-02-28T02:48:48.308Z,60375.22
2023-02-28T02:51:22.243Z,60374.25
2023-02-28T02:53:54.309Z,60372.13
2023-02-28T02:56:28.144Z,60369.50
2023-02-28T02:59:03.458Z,60377.97
2023-02-28T03:01:33.720Z,60373.34
2023-02-28T03:04:04.947Z,60373.22
2023-02-28T03:06:36.219Z,60360.06
2023-02-28T03:09:06.520Z,60365.25
2023-02-28T03:11:37.523Z,60368.28
2023-02-28T03:14:34.205Z,60362.19
2023-02-28T03:17:55.164Z,60353.16
2023-02-28T03:20:38.392Z,60354.34
2023-02-28T03:23:18.956Z,60361.00
2023-02-28T03:25:59.139Z,60350.00
2023-02-28T03:28:43.164Z,60350.38
2023-02-28T03:31:18.577Z,60358.88
2023-02-28T03:33:55.822Z,60385.81
2023-02-28T03:36:29.017Z,60476.78
2023-02-28T03:39:04.286Z,60481.72
2023-02-28T03:41:40.010Z,60499.78
2023-02-28T03:44:16.415Z,60513.19
2023-02-28T03:46:50.777Z,60477.84
2023-02-28T03:49:25.367Z,60432.16
2023-02-28T03:51:56.212Z,60414.38
2023-02-28T03:54:31.290Z,60390.31
2023-02-28T03:57:05.080Z,60381.19
2023-02-28T03:59:40.272Z,60370.16
2023-02-28T04:02:09.681Z,60371.59
2023-02-28T04:04:38.557Z,60358.88
2023-02-28T04:07:10.948Z,60352.91
2023-02-28T04:09:40.965Z,60352.63
2023-02-28T04:12:10.640Z,60348.25
2023-02-28T04:14:39.073Z,60350.00
2023-02-28T04:17:07.463Z,60350.50
2023-02-28T04:19:35.864Z,60348.25
2023-02-28T04:22:04.437Z,60340.84
2023-02-28T04:24:32.881Z,60334.06
2023-02-28T04:27:02.948Z,60339.22
2023-02-28T04:29:33.912Z,60344.00
2023-02-28T04:32:04.288Z,60341.50
2023-02-28T04:34:34.395Z,60341.88
2023-02-28T04:37:13.458Z,60350.38
2023-02-28T04:39:43.735Z,60354.09
2023-02-28T04:42:14.444Z,60352.22
2023-02-28T04:44:42.847Z,60365.25
2023-02-28T04:47:11.543Z,60365.38
2023-02-28T04:49:40.020Z,60363.38
2023-02-28T04:52:08.677Z,60363.38
2023-02-28T04:54:37.133Z,60366.03
2023-02-28T04:57:05.554Z,60364.72
2023-02-28T04:59:35.584Z,60365.50
2023-02-28T05:02:07.902Z,60363.13
2023-02-28T05:04:37.029Z,60361.25
2023-02-28T05:07:05.749Z,60362.59
2023-02-28T05:09:35.606Z,60356.75
2023-02-28T05:12:04.296Z,60359.41
2023-02-28T05:14:34.099Z,60360.34
2023-02-28T05:17:02.496Z,60363.53
2023-02-28T05:19:30.871Z,60353.16
2023-02-28T05:21:59.456Z,60349.31
2023-02-28T05:24:27.839Z,60360.88
2023-02-28T05:26:57.420Z,60346.53
2023-02-28T05:29:25.831Z,60344.28
2023-02-28T05:31:55.718Z,60351.44
2023-02-28T05:34:24.184Z,60351.44
2023-02-28T05:36:52.538Z,60341.63
2023-02-28T05:39:20.938Z,60334.59
2023-02-28T05:41:49.375Z,60346.94
2023-02-28T05:44:18.303Z,60342.16
2023-02-28T05:46:46.713Z,60338.97
2023-02-28T05:49:16.374Z,60342.28
2023-02-28T05:51:44.802Z,60340.44
2023-02-28T05:54:14.010Z,60337.91
2023-02-28T05:56:45.078Z,60334.06
2023-02-28T05:59:13.810Z,60335.78
2023-02-28T06:01:48.997Z,60338.31
2023-02-28T06:04:31.413Z,60337.25
2023-02-28T06:07:00.510Z,60337.91
2023-02-28T06:09:30.082Z,60340.56
2023-02-28T06:12:00.832Z,60337.66
2023-02-28T06:14:29.195Z,60337.91
2023-02-28T06:16:59.181Z,60339.38
2023-02-28T06:19:29.712Z,60337.38
2023-02-28T06:22:00.654Z,60346.66
2023-02-28T06:24:30.110Z,60339.75
2023-02-28T06:26:59.893Z,60337.13
2023-02-28T06:29:28.503Z,60339.88
2023-02-28T06:31:57.155Z,60335.53
2023-02-28T06:34:25.585Z,60335.13
2023-02-28T06:36:55.791Z,60344.00
2023-02-28T06:39:24.279Z,60343.63
2023-02-28T06:41:55.995Z,60345.06
2023-02-28T06:44:25.782Z,60338.31
2023-02-28T06:46:54.453Z,60344.69
2023-02-28T06:49:22.921Z,60357.03
2023-02-28T06:51:51.401Z,60360.34
2023-02-28T06:54:21.285Z,60365.25
2023-02-28T06:56:52.915Z,60368.44
2023-02-28T06:59:21.555Z,60373.22
2023-02-28T07:01:50.075Z,60381.19
2023-02-28T07:04:18.581Z,60381.19
2023-02-28T07:06:46.926Z,60389.13
2023-02-28T07:09:15.816Z,60391.41
2023-02-28T07:11:45.689Z,60395.09
2023-02-28T07:14:14.145Z,60405.34
2023-02-28T07:16:42.890Z,60401.59
2023-02-28T07:19:11.620Z,60409.44
2023-02-28T07:21:40.057Z,60411.56
2023-02-28T07:24:09.345Z,60420.06
2023-02-28T07:26:37.794Z,60417.56
2023-02-28T07:29:07.598Z,60438.53
2023-02-28T07:31:36.206Z,60437.47
2023-02-28T07:34:04.654Z,60439.59
2023-02-28T07:36:33.247Z,60433.47
2023-02-28T07:39:01.722Z,60452.88
2023-02-28T07:41:31.258Z,60454.06
2023-02-28T07:44:00.726Z,60460.84
2023-02-28T07:46:36.690Z,60456.19
2023-02-28T07:49:05.757Z,60468.94
2023-02-28T07:51:34.917Z,60485.28
2023-02-28T07:54:03.475Z,60482.75
2023-02-28T07:56:32.193Z,60494.47
2023-02-28T07:59:00.861Z,60490.47
2023-02-28T08:01:30.988Z,60495.13
2023-02-28T08:03:59.714Z,60517.59
2023-02-28T08:06:28.366Z,60518.63
2023-02-28T08:08:57.632Z,60521.16
2023-02-28T08:11:26.063Z,60540.47
2023-02-28T08:13:54.460Z,60538.06
2023-02-28T08:16:23.696Z,60560.53
2023-02-28T08:18:54.712Z,60551.47
2023-02-28T08:21:23.755Z,60555.75
2023-02-28T08:23:53.221Z,60566.66
2023-02-28T08:26:22.656Z,60572.50
2023-02-28T08:28:51.580Z,60600.97
2023-02-28T08:31:21.064Z,60599.22
2023-02-28T08:33:52.089Z,60605.34
2023-02-28T08:36:22.292Z,60602.28
2023-02-28T08:38:50.691Z,60632.91
2023-02-28T08:41:19.270Z,60620.38
2023-02-28T08:43:47.772Z,60632.09
2023-02-28T08:46:17.057Z,60648.31
2023-02-28T08:48:46.276Z,60664.03
2023-02-28T08:51:19.622Z,60733.28
2023-02-28T08:53:50.366Z,60790.44
2023-02-28T08:56:19.359Z,60817.91
2023-02-28T08:58:50.170Z,60846.97
2023-02-28T09:01:21.236Z,60890.31
2023-02-28T09:03:52.044Z,60901.78
2023-02-28T09:06:22.575Z,60926.59
2023-02-28T09:08:53.040Z,60958.38
2023-02-28T09:11:21.802Z,60993.22
2023-02-28T09:13:50.137Z,60981.88
2023-02-28T09:16:20.218Z,60975.06
2023-02-28T09:18:49.004Z,60974.81
2023-02-28T09:21:19.852Z,60946.09
2023-02-28T09:23:51.458Z,60940.22
2023-02-28T09:26:23.256Z,61018.63
2023-02-28T09:28:52.689Z,61038.50
2023-02-28T09:31:23.895Z,61045.47
2023-02-28T09:33:54.177Z,61011.78
2023-02-28T09:36:23.423Z,61049.75
2023-02-28T09:38:54.979Z,61040.53
2023-02-28T09:41:26.314Z,61029.56
2023-02-28T09:43:58.596Z,60982.97
2023-02-28T09:46:38.495Z,60990.84
2023-02-28T09:49:14.209Z,60990.44
2023-02-28T09:51:53.768Z,61023.53
2023-02-28T09:54:25.813Z,60988.28
2023-02-28T09:57:00.905Z,60972.91
2023-02-28T09:59:46.890Z,60968.13
2023-02-28T10:02:40.925Z,60935.53
2023-02-28T10:05:14.163Z,60852.41
2023-02-28T10:08:00.014Z,60843.09
2023-02-28T10:10:35.797Z,60816.97
2023-02-28T10:13:07.557Z,60845.22
2023-02-28T10:15:37.828Z,60914.19
2023-02-28T10:18:13.915Z,60854.19
2023-02-28T10:20:43.531Z,60834.56
2023-02-28T10:23:19.619Z,60813.22
2023-02-28T10:26:00.971Z,60850.56
2023-02-28T10:28:33.051Z,60905.41
2023-02-28T10:31:01.827Z,60993.22
2023-02-28T10:33:35.221Z,61046.00
2023-02-28T10:36:07.831Z,60997.91
2023-02-28T10:38:39.219Z,61032.53
2023-02-28T10:41:11.729Z,61069.53
2023-02-28T10:43:42.150Z,60992.97
2023-02-28T10:46:27.262Z,60941.31
2023-02-28T10:49:06.157Z,61001.00
2023-02-28T10:51:41.178Z,61004.97
2023-02-28T10:54:18.816Z,60951.03
2023-02-28T10:57:07.915Z,60869.13
2023-02-28T10:59:37.356Z,60903.66
2023-02-28T11:02:36.567Z,60910.34
2023-02-28T11:05:25.794Z,60900.06
2023-02-28T11:07:55.781Z,60927.41
2023-02-28T11:10:30.199Z,60942.50
2023-02-28T11:13:01.218Z,61002.59
2023-02-28T11:15:32.223Z,60947.72
2023-02-28T11:18:03.425Z,60949.59
2023-02-28T11:20:35.164Z,60994.72
2023-02-28T11:23:06.766Z,60966.78
2023-02-28T11:25:37.318Z,60943.44
2023-02-28T11:28:11.309Z,60924.22
2023-02-28T11:30:42.087Z,60879.38
2023-02-28T11:33:31.082Z,60864.44
2023-02-28T11:36:04.955Z,60893.25
2023-02-28T11:38:37.341Z,60902.88
2023-02-28T11:41:29.438Z,60895.13
2023-02-28T11:44:23.789Z,60911.69
2023-02-28T11:46:56.710Z,60882.59
2023-02-28T11:49:49.637Z,60886.97
2023-02-28T11:52:27.271Z,60857.38
2023-02-28T11:55:18.558Z,60893.69
2023-02-28T11:58:30.066Z,60899.00
2023-02-28T12:01:21.375Z,60902.03
2023-02-28T12:04:05.760Z,60902.03
2023-02-28T12:06:42.726Z,60880.69
2023-02-28T12:09:38.739Z,60928.06
2023-02-28T12:12:24.399Z,60915.03
2023-02-28T12:15:19.357Z,60911.94
2023-02-28T12:18:02.325Z,60946.63
2023-02-28T12:20:39.198Z,60943.44
2023-02-28T12:23:32.324Z,60994.28
2023-02-28T12:26:11.249Z,60982.97
2023-02-28T12:28:45.456Z,60974.66
2023-02-28T12:31:20.697Z,61022.50
2023-02-28T12:33:55.129Z,61057.78
2023-02-28T12:36:24.999Z,61017.78
2023-02-28T12:38:59.024Z,61027.84
2023-02-28T12:41:37.099Z,61059.50
2023-02-28T12:44:12.546Z,61003.00
2023-02-28T12:46:45.363Z,61003.66
2023-02-28T12:49:18.802Z,60971.88
2023-02-28T12:51:49.321Z,60950.91
2023-02-28T12:54:26.834Z,60938.75
2023-02-28T12:57:05.043Z,60947.84
2023-02-28T12:59:40.663Z,60992.56
2023-02-28T13:03:19.537Z,60990.56
2023-02-28T13:06:24.784Z,60999.50
2023-02-28T13:09:06.713Z,60985.63
2023-02-28T13:11:41.695Z,60991.50
2023-02-28T13:14:25.777Z,60953.59
2023-02-28T13:17:11.810Z,60954.38
2023-02-28T13:19:43.158Z,60969.31
2023-02-28T13:22:23.316Z,60993.63
2023-02-28T13:24:53.628Z,60998.97
2023-02-28T13:27:38.999Z,60998.97
2023-02-28T13:31:06.569Z,60988.84
2023-02-28T13:33:36.854Z,60987.22
2023-02-28T13:36:30.496Z,60977.63
2023-02-28T13:39:04.937Z,60951.72
2023-02-28T13:41:48.511Z,60956.13
2023-02-28T13:44:24.208Z,60969.06
2023-02-28T13:47:26.664Z,61004.72
2023-02-28T13:49:55.481Z,60983.63
2023-02-28T13:52:26.484Z,60974.41
2023-02-28T13:55:26.333Z,60990.31
2023-02-28T13:58:13.961Z,60991.09
2023-02-28T14:01:14.701Z,60979.09
2023-02-28T14:04:16.656Z,60969.06
2023-02-28T14:06:51.077Z,60982.31
2023-02-28T14:09:26.172Z,60977.63
2023-02-28T14:11:56.603Z,60961.56
2023-02-28T14:14:58.201Z,60962.13
2023-02-28T14:17:28.176Z,60979.22
2023-02-28T14:19:57.183Z,60952.50
2023-02-28T14:22:54.715Z,60983.25
2023-02-28T14:25:33.692Z,60978.69
2023-02-28T14:28:16.353Z,60968.41
2023-02-28T14:31:10.916Z,60971.22
2023-02-28T14:34:06.028Z,60989.38
2023-02-28T14:36:37.717Z,60983.50
2023-02-28T14:39:13.034Z,60961.56
2023-02-28T14:41:44.058Z,60971.22
2023-02-28T14:44:22.420Z,60974.41
2023-02-28T14:46:54.616Z,60967.06
2023-02-28T14:49:28.545Z,60942.38
2023-02-28T14:52:10.834Z,60960.94
2023-02-28T14:54:40.254Z,60965.03
2023-02-28T14:57:21.477Z,60954.25
2023-02-28T15:00:01.640Z,60957.56
2023-02-28T15:02:35.490Z,60950.91
2023-02-28T15:05:28.169Z,60942.91
2023-02-28T15:08:21.450Z,60934.66
2023-02-28T15:10:56.871Z,60952.63
2023-02-28T15:13:30.593Z,60942.25
2023-02-28T15:16:04.619Z,60933.81
2023-02-28T15:18:43.672Z,60948.53
2023-02-28T15:21:18.774Z,60966.66
2023-02-28T15:23:52.181Z,60941.31
2023-02-28T15:26:25.625Z,60942.38
2023-02-28T15:28:59.593Z,60944.50
2023-02-28T15:31:54.307Z,60955.06
2023-02-28T15:34:40.702Z,60948.91
2023-02-28T15:37:40.235Z,60948.78
2023-02-28T15:40:17.733Z,60941.31
2023-02-28T15:43:16.476Z,60917.38
2023-02-28T15:45:49.993Z,60915.16
2023-02-28T15:48:25.946Z,60900.59
2023-02-28T15:50:56.888Z,60914.63
2023-02-28T15:53:29.858Z,60932.75
2023-02-28T15:56:03.340Z,60922.06
2023-02-28T15:58:32.266Z,60930.63
2023-02-28T16:01:17.533Z,60932.75
2023-02-28T16:03:50.493Z,60930.38
2023-02-28T16:06:43.054Z,60919.94
2023-02-28T16:09:14.790Z,60925.28
2023-02-28T16:11:47.724Z,60936.50
2023-02-28T16:14:20.711Z,60931.03
2023-02-28T16:16:52.753Z,60926.34
2023-02-28T16:19:22.970Z,60925.69
2023-02-28T16:21:52.249Z,60915.66
2023-02-28T16:24:20.680Z,60905.81
2023-02-28T16:26:52.512Z,60908.63
2023-02-28T16:29:27.118Z,60890.56
2023-02-28T16:31:56.022Z,60906.47
2023-02-28T16:34:26.079Z,60890.34
2023-02-28T16:36:55.026Z,60893.13
2023-02-28T16:39:23.536Z,60888.34
2023-02-28T16:41:53.248Z,60876.84
2023-02-28T16:44:30.431Z,60868.31
2023-02-28T16:46:59.276Z,60883.41
2023-02-28T16:49:29.223Z,60876.72
2023-02-28T16:51:57.722Z,60874.06
2023-02-28T16:54:26.342Z,60865.50
2023-02-28T16:56:55.074Z,60868.31
2023-02-28T16:59:26.739Z,60851.09
2023-02-28T17:01:55.721Z,60838.44
2023-02-28T17:04:24.621Z,60844.19
2023-02-28T17:06:54.556Z,60849.38
2023-02-28T17:09:40.004Z,60843.66
2023-02-28T17:12:10.365Z,60859.91
2023-02-28T17:14:38.816Z,60855.66
2023-02-28T17:17:07.622Z,60848.44
2023-02-28T17:19:37.177Z,60843.22
2023-02-28T17:22:07.008Z,60846.19
2023-02-28T17:24:35.486Z,60837.34
2023-02-28T17:27:04.297Z,60839.50
2023-02-28T17:29:32.818Z,60834.56
2023-02-28T17:32:12.169Z,60827.09
2023-02-28T17:34:47.087Z,60830.31
2023-02-28T17:37:17.188Z,60824.97
2023-02-28T17:39:45.633Z,60830.31
2023-02-28T17:42:14.050Z,60823.91
2023-02-28T17:44:42.481Z,60820.19
2023-02-28T17:47:13.927Z,60816.44
2023-02-28T17:49:42.693Z,60807.63
2023-02-28T17:52:11.298Z,60805.25
2023-02-28T17:54:41.222Z,60810.03
2023-02-28T17:57:16.994Z,60802.97
2023-02-28T17:59:45.758Z,60797.25
2023-02-28T18:02:15.388Z,60800.44
2023-02-28T18:04:43.816Z,60798.44
2023-02-28T18:07:14.297Z,60783.91
2023-02-28T18:09:44.056Z,60778.56
2023-02-28T18:12:12.452Z,60785.50
2023-02-28T18:14:40.949Z,60835.63
2023-02-28T18:17:09.455Z,60845.22
2023-02-28T18:19:39.013Z,60848.44
2023-02-28T18:22:08.759Z,60844.84
2023-02-28T18:24:37.839Z,60859.13
2023-02-28T18:27:07.760Z,60843.66
2023-02-28T18:29:39.569Z,60848.56
2023-02-28T18:32:10.028Z,60848.69
2023-02-28T18:34:38.709Z,60864.44
2023-02-28T18:37:07.193Z,60809.50
2023-02-28T18:39:35.690Z,60773.38
2023-02-28T18:42:04.366Z,60748.84
2023-02-28T18:44:34.388Z,60747.78
2023-02-28T18:47:02.844Z,60743.28
2023-02-28T18:49:35.716Z,60726.88
2023-02-28T18:52:04.465Z,60728.47
2023-02-28T18:54:32.975Z,60734.75
2023-02-28T18:57:01.447Z,60719.41
2023-02-28T18:59:30.110Z,60705.28
2023-02-28T19:01:59.862Z,60709.84
2023-02-28T19:04:32.170Z,60705.72
2023-02-28T19:07:00.945Z,60708.25
2023-02-28T19:09:29.779Z,60701.97
2023-02-28T19:12:02.282Z,60702.38
2023-02-28T19:14:31.237Z,60697.19
2023-02-28T19:17:01.042Z,60700.78
2023-02-28T19:19:29.818Z,60691.72
2023-02-28T19:21:58.452Z,60689.72
2023-02-28T19:24:29.403Z,60689.06
2023-02-28T19:26:57.879Z,60687.47
2023-02-28T19:29:26.706Z,60688.53
2023-02-28T19:31:55.319Z,60690.66
2023-02-28T19:34:25.298Z,60684.25
2023-02-28T19:36:53.838Z,60671.50
2023-02-28T19:39:22.434Z,60674.69
2023-02-28T19:41:50.985Z,60670.44
2023-02-28T19:44:19.505Z,60658.19
2023-02-28T19:46:48.130Z,60648.06
2023-02-28T19:49:18.600Z,60647.00
2023-02-28T19:51:48.530Z,60654.03
2023-02-28T19:54:16.898Z,60651.13
2023-02-28T19:56:45.413Z,60647.00
2023-02-28T19:59:21.863Z,60637.00
2023-02-28T20:01:59.402Z,60646.59
2023-02-28T20:04:28.951Z,60646.59
2023-02-28T20:06:59.500Z,60643.81
2023-02-28T20:09:32.088Z,60637.44
2023-02-28T20:12:01.684Z,60634.22
2023-02-28T20:14:31.313Z,60639.53
2023-02-28T20:17:00.007Z,60628.38
2023-02-28T20:19:28.924Z,60637.69
2023-02-28T20:21:58.837Z,60629.44
2023-02-28T20:24:27.422Z,60612.94
2023-02-28T20:26:58.000Z,60620.00
2023-02-28T20:29:26.821Z,60617.84
2023-02-28T20:31:57.651Z,60606.81
2023-02-28T20:34:27.143Z,60618.78
2023-02-28T20:36:56.547Z,60607.59
2023-02-28T20:39:32.702Z,60596.56
2023-02-28T20:42:01.208Z,60615.59
2023-02-28T20:44:35.817Z,60603.34
2023-02-28T20:47:07.538Z,60610.13
2023-02-28T20:49:36.270Z,60602.97
2023-02-28T20:52:05.101Z,60600.81
2023-02-28T20:54:36.494Z,60588.47
2023-02-28T20:57:05.359Z,60582.72
2023-02-28T20:59:34.177Z,60580.59
2023-02-28T21:02:02.658Z,60589.50
2023-02-28T21:04:31.493Z,60575.28
2023-02-28T21:07:00.159Z,60576.75
2023-02-28T21:09:29.034Z,60577.81
2023-02-28T21:11:58.834Z,60571.81
2023-02-28T21:14:27.528Z,60575.69
2023-02-28T21:16:56.048Z,60572.50
2023-02-28T21:19:24.868Z,60578.88
2023-02-28T21:21:55.932Z,60574.09
2023-02-28T21:24:24.541Z,60571.03
2023-02-28T21:26:54.045Z,60562.38
2023-02-28T21:29:24.465Z,60551.22
2023-02-28T21:31:53.772Z,60563.44
2023-02-28T21:34:25.108Z,60568.25
2023-02-28T21:36:54.519Z,60566.66
2023-02-28T21:39:30.097Z,60566.09
2023-02-28T21:42:04.284Z,60562.50
2023-02-28T21:44:35.604Z,60565.03
2023-02-28T21:47:04.163Z,60562.38
2023-02-28T21:49:33.122Z,60560.25
2023-02-28T21:52:01.879Z,60552.28
2023-02-28T21:54:30.465Z,60555.19
2023-02-28T21:56:59.828Z,60545.50
2023-02-28T21:59:28.848Z,60543.50
2023-02-28T22:01:58.947Z,60538.44
2023-02-28T22:04:27.384Z,60540.59
2023-02-28T22:06:58.337Z,60540.16
2023-02-28T22:09:27.496Z,60536.44
2023-02-28T22:11:58.516Z,60531.00
2023-02-28T22:14:27.235Z,60536.19
2023-02-28T22:16:56.941Z,60535.53
2023-02-28T22:19:28.407Z,60546.44
2023-02-28T22:21:57.794Z,60537.94
2023-02-28T22:24:26.256Z,60541.50
2023-02-28T22:26:55.226Z,60528.34
2023-02-28T22:29:23.807Z,60532.59
2023-02-28T22:31:52.856Z,60521.97
2023-02-28T22:34:21.398Z,60523.56
2023-02-28T22:36:51.288Z,60518.25
2023-02-28T22:39:20.046Z,60515.31
2023-02-28T22:41:48.783Z,60509.75
2023-02-28T22:44:17.511Z,60517.19
2023-02-28T22:46:46.047Z,60511.88
2023-02-28T22:49:14.418Z,60515.31
2023-02-28T22:51:45.731Z,60504.41
2023-02-28T22:54:17.805Z,60505.50
2023-02-28T22:56:46.462Z,60499.78
2023-02-28T22:59:16.100Z,60487.28
2023-02-28T23:01:44.969Z,60499.25
2023-02-28T23:04:13.666Z,60502.44
2023-02-28T23:06:44.235Z,60507.63
2023-02-28T23:09:18.123Z,60498.31
2023-02-28T23:11:48.925Z,60481.03
2023-02-28T23:14:19.319Z,60492.72
2023-02-28T23:16:49.701Z,60490.19
2023-02-28T23:19:21.431Z,60467.88
2023-02-28T23:21:50.794Z,60468.53
2023-02-28T23:24:23.863Z,60461.50
2023-02-28T23:26:56.372Z,60482.09
2023-02-28T23:29:26.141Z,60469.88
2023-02-28T23:31:55.448Z,60481.31
2023-02-28T23:34:26.560Z,60477.44
2023-02-28T23:36:56.567Z,60478.09
2023-02-28T23:39:27.684Z,60468.41
2023-02-28T23:41:56.762Z,60470.94
2023-02-28T23:44:26.182Z,60473.59
2023-02-28T23:46:55.694Z,60471.06
2023-02-28T23:49:24.471Z,60474.91
2023-02-28T23:51:54.392Z,60461.91
2023-02-28T23:54:22.965Z,60456.19
2023-02-28T23:56:52.747Z,60448.63
2023-02-28T23:59:21.198Z,60464.03
